Wed, 04 Aug 2021 00:17:21 UTC

Information for RPM lzo-2.08-12.fc28.s390x.rpm

ID12667523
Namelzo
Version2.08
Release12.fc28
Epoch
Archs390x
SummaryData compression library with very fast (de)compression
DescriptionLZO is a portable lossless data compression library written in ANSI C. It offers pretty fast compression and very fast decompression. Decompression requires no memory. In addition there are slower compression levels achieving a quite competitive compression ratio while still decompressing at this very high speed.
Build Time2018-02-03 12:39:14 GMT
Size65,992
961c170eccda241e09b155daf8e926f3
LicenseGPLv2+
Buildrootf28-build-11295663-849777
Provides
liblzo2.so.2()(64bit)
lzo = 2.08-12.fc28
lzo(s390-64) = 2.08-12.fc28
Obsoletes No Obsoletes
Conflicts No Conflicts
Requires
libc.so.6()(64bit)
libc.so.6(GLIBC_2.2)(64bit)
libc.so.6(GLIBC_2.4)(64bit)
rpmlib(CompressedFileNames) <= 3.0.4-1
rpmlib(FileDigests) <= 4.6.0-1
rpmlib(PayloadFilesHavePrefix) <= 4.0-1
rpmlib(PayloadIsXz) <= 5.2-1
rtld(GNU_HASH)
Recommends No Recommends
Suggests No Suggests
Supplements No Supplements
Enhances No Enhances
Files
1 through 11 of 11
Name ascending sort Size
/usr/lib/.build-id0
/usr/lib/.build-id/2d0
/usr/lib/.build-id/2d/fa8b41f739077f928837c837f59fd04587e8b338
/usr/lib64/liblzo2.so.216
/usr/lib64/liblzo2.so.2.0.0161,784
/usr/share/doc/lzo0
/usr/share/doc/lzo/AUTHORS112
/usr/share/doc/lzo/NEWS12,279
/usr/share/doc/lzo/THANKS690
/usr/share/licenses/lzo0
/usr/share/licenses/lzo/COPYING18,092
Component of
Page:
1 through 50 of 1642 >>>
Buildroot descending sort Created State
f28-build-16315771-1167552 2019-05-22 23:04:02 expired
f28-build-16306319-1167231 2019-05-21 15:21:22 expired
f28-build-16305300-1166767 2019-05-21 12:59:40 expired
f28-build-16266512-1165452 2019-05-18 06:36:04 expired
f28-build-16255048-1163318 2019-05-15 19:27:29 expired
f28-build-16252953-1163318 2019-05-15 10:43:23 expired
f28-build-16176654-1157675 2019-05-07 20:29:23 expired
f28-build-16016819-1148271 2019-04-24 19:22:56 expired
f28-build-15903215-1141761 2019-04-14 19:57:54 expired
f28-build-15884156-1141322 2019-04-13 04:24:48 expired
f28-build-15873764-1140426 2019-04-11 18:58:59 expired
f28-build-15852317-1138160 2019-04-09 04:04:14 expired
f28-build-15850874-1138103 2019-04-08 23:40:53 expired
f28-build-15754027-1132939 2019-04-02 02:27:01 expired
f28-build-15721497-1131205 2019-03-29 14:08:28 expired
f28-build-15705763-1129405 2019-03-26 13:09:37 expired
f28-build-15702503-1128734 2019-03-25 20:22:13 expired
f28-build-15648071-1125801 2019-03-21 08:17:46 expired
f28-build-15635194-1124303 2019-03-19 06:27:46 expired
f28-build-15621130-1122960 2019-03-18 06:26:22 expired
f28-build-15599475-1122010 2019-03-17 00:51:26 expired
f28-build-15558707-1119248 2019-03-14 10:41:05 expired
f28-build-15551765-1118223 2019-03-13 13:37:21 expired
f28-build-15545022-1118223 2019-03-12 21:26:46 expired
f28-build-15543509-1118032 2019-03-12 14:36:00 expired
f28-build-15527999-1116258 2019-03-11 10:33:48 expired
f28-build-15510160-1115409 2019-03-10 13:47:35 expired
f28-build-15508972-1115409 2019-03-10 12:21:32 expired
f28-build-15462581-1112893 2019-03-07 17:00:24 expired
f28-build-15425092-1110800 2019-03-05 18:10:47 expired
f28-build-15398126-1106236 2019-03-01 14:04:47 expired
f28-build-15390597-1105184 2019-02-28 09:08:13 expired
f28-build-15382177-1104105 2019-02-27 12:45:12 expired
f28-build-15360922-1102721 2019-02-25 15:54:19 expired
f28-build-15318095-1100074 2019-02-21 20:26:39 expired
f28-build-15318058-1100074 2019-02-21 20:24:57 expired
f28-build-15306345-1098823 2019-02-20 15:40:51 expired
f28-build-15305741-1098318 2019-02-20 13:46:10 expired
f28-build-15300850-1097915 2019-02-19 18:01:09 expired
f28-build-15299191-1097620 2019-02-19 13:22:55 expired
f28-build-15291793-1096800 2019-02-18 21:10:16 expired
f28-build-15274718-1094880 2019-02-16 18:14:12 expired
f28-build-15250774-1092025 2019-02-13 20:30:37 expired
f28-build-15250579-1092025 2019-02-13 20:12:53 expired
f28-build-15242917-1090927 2019-02-13 11:13:43 expired
f28-build-15239266-1090588 2019-02-12 17:48:17 expired
f28-build-15229705-1089621 2019-02-11 18:43:16 expired
f28-build-15228928-1088720 2019-02-11 16:17:53 expired
f28-build-15228065-1088720 2019-02-11 14:40:40 expired
f28-build-15227075-1088720 2019-02-11 10:28:02 expired